createdAt,value
2023-07-23T00:02:28.309Z,27.09
2023-07-23T00:04:56.644Z,27.16
2023-07-23T00:07:25.162Z,27.29
2023-07-23T00:09:53.520Z,27.42
2023-07-23T00:12:22.076Z,27.44
2023-07-23T00:14:50.385Z,27.50
2023-07-23T00:17:18.926Z,27.41
2023-07-23T00:19:48.598Z,27.75
2023-07-23T00:22:17.346Z,27.54
2023-07-23T00:24:46.789Z,27.52
2023-07-23T00:27:15.912Z,27.96
2023-07-23T00:29:44.602Z,27.89
2023-07-23T00:32:13.190Z,27.77
2023-07-23T00:34:41.499Z,27.89
2023-07-23T00:37:11.815Z,27.57
2023-07-23T00:39:40.755Z,28.12
2023-07-23T00:42:09.341Z,28.31
2023-07-23T00:44:37.625Z,27.96
2023-07-23T00:47:06.325Z,28.58
2023-07-23T00:49:34.912Z,29.06
2023-07-23T00:52:03.566Z,29.04
2023-07-23T00:54:33.677Z,28.95
2023-07-23T00:57:03.683Z,29.04
2023-07-23T00:59:33.614Z,29.36
2023-07-23T01:02:03.279Z,28.91
2023-07-23T01:04:32.367Z,28.55
2023-07-23T01:07:03.468Z,28.66
2023-07-23T01:09:33.422Z,28.86
2023-07-23T01:12:02.115Z,29.10
2023-07-23T01:14:30.463Z,28.77
2023-07-23T01:17:00.094Z,28.82
2023-07-23T01:19:28.631Z,29.16
2023-07-23T01:22:01.328Z,28.52
2023-07-23T01:24:29.945Z,29.27
2023-07-23T01:26:58.467Z,29.32
2023-07-23T01:29:26.815Z,28.93
2023-07-23T01:31:55.263Z,29.15
2023-07-23T01:34:23.872Z,29.15
2023-07-23T01:36:52.593Z,29.31
2023-07-23T01:39:22.222Z,28.99
2023-07-23T01:41:50.801Z,29.37
2023-07-23T01:44:19.387Z,29.29
2023-07-23T01:46:48.542Z,29.46
2023-07-23T01:49:16.708Z,29.82
2023-07-23T01:51:45.395Z,29.72
2023-07-23T01:54:13.649Z,29.41
2023-07-23T01:56:43.589Z,29.17
2023-07-23T01:59:11.809Z,29.13
2023-07-23T02:01:40.326Z,29.01
2023-07-23T02:04:08.905Z,29.33
2023-07-23T02:06:37.828Z,28.93
2023-07-23T02:09:06.034Z,29.22
2023-07-23T02:11:34.514Z,29.46
2023-07-23T02:14:04.120Z,29.11
2023-07-23T02:16:32.708Z,29.34
2023-07-23T02:19:01.822Z,30.20
2023-07-23T02:21:30.771Z,30.41
2023-07-23T02:23:59.784Z,30.30
2023-07-23T02:26:28.306Z,30.84
2023-07-23T02:28:56.721Z,31.41
2023-07-23T02:31:27.024Z,31.08
2023-07-23T02:33:55.594Z,31.36
2023-07-23T02:36:24.136Z,31.47
2023-07-23T02:38:52.433Z,31.95
2023-07-23T02:41:21.128Z,32.36
2023-07-23T02:43:49.363Z,32.25
2023-07-23T02:46:17.898Z,31.73
2023-07-23T02:48:47.673Z,31.96
2023-07-23T02:51:16.197Z,31.91
2023-07-23T02:53:44.543Z,31.76
2023-07-23T02:56:13.011Z,31.63
2023-07-23T02:58:41.479Z,31.87
2023-07-23T03:01:10.542Z,32.09
2023-07-23T03:03:38.858Z,31.62
2023-07-23T03:06:09.959Z,31.41
2023-07-23T03:08:38.386Z,31.99
2023-07-23T03:11:07.335Z,31.55
2023-07-23T03:13:35.667Z,31.99
2023-07-23T03:16:05.496Z,31.66
2023-07-23T03:18:33.729Z,32.08
2023-07-23T03:21:02.481Z,32.25
2023-07-23T03:23:32.067Z,32.20
2023-07-23T03:26:00.672Z,32.68
2023-07-23T03:28:28.868Z,32.33
2023-07-23T03:30:57.487Z,32.27
2023-07-23T03:33:25.693Z,31.76
2023-07-23T03:35:54.273Z,31.64
2023-07-23T03:38:22.572Z,31.65
2023-07-23T03:40:52.396Z,31.16
2023-07-23T03:43:20.914Z,31.23
2023-07-23T03:45:49.619Z,31.47
2023-07-23T03:48:17.916Z,30.76
2023-07-23T03:50:46.487Z,30.98
2023-07-23T03:53:14.920Z,31.09
2023-07-23T03:55:43.319Z,30.59
2023-07-23T03:58:13.676Z,29.70
2023-07-23T04:00:43.100Z,29.55
2023-07-23T04:03:14.171Z,29.89
2023-07-23T04:05:43.064Z,29.77
2023-07-23T04:08:11.411Z,29.39
2023-07-23T04:10:39.987Z,29.26
2023-07-23T04:13:08.452Z,29.10
2023-07-23T04:15:39.680Z,28.32
2023-07-23T04:18:16.739Z,27.86
2023-07-23T04:20:45.584Z,27.83
2023-07-23T04:23:13.856Z,27.42
2023-07-23T04:25:42.521Z,27.67
2023-07-23T04:28:10.778Z,27.51
2023-07-23T04:30:40.800Z,27.89
2023-07-23T04:33:09.103Z,28.09
2023-07-23T04:35:37.757Z,28.07
2023-07-23T04:38:05.961Z,27.93
2023-07-23T04:40:36.547Z,27.97
2023-07-23T04:43:04.766Z,27.35
2023-07-23T04:45:33.340Z,27.31
2023-07-23T04:48:03.038Z,26.85
2023-07-23T04:50:31.513Z,27.19
2023-07-23T04:52:59.883Z,27.23
2023-07-23T04:55:28.375Z,26.91
2023-07-23T04:57:56.809Z,27.18
2023-07-23T05:00:25.650Z,27.22
2023-07-23T05:02:54.138Z,26.89
2023-07-23T05:05:24.278Z,26.93
2023-07-23T05:07:52.485Z,27.00
2023-07-23T05:10:21.050Z,27.22
2023-07-23T05:12:49.274Z,27.26
2023-07-23T05:15:19.224Z,27.10
2023-07-23T05:17:47.585Z,27.30
2023-07-23T05:20:17.291Z,26.88
2023-07-23T05:22:46.967Z,26.85
2023-07-23T05:25:15.643Z,26.91
2023-07-23T05:27:43.918Z,27.35
2023-07-23T05:30:13.319Z,27.09
2023-07-23T05:32:41.633Z,26.99
2023-07-23T05:35:10.438Z,27.39
2023-07-23T05:37:38.898Z,26.95
2023-07-23T05:40:10.249Z,26.53
2023-07-23T05:42:38.558Z,26.41
2023-07-23T05:45:08.163Z,26.11
2023-07-23T05:47:36.599Z,25.63
2023-07-23T05:50:06.040Z,24.99
2023-07-23T05:52:34.440Z,24.78
2023-07-23T05:55:02.975Z,25.29
2023-07-23T05:57:32.735Z,25.43
2023-07-23T06:00:01.280Z,25.66
2023-07-23T06:02:29.874Z,26.05
2023-07-23T06:04:58.944Z,26.17
2023-07-23T06:07:27.227Z,26.43
2023-07-23T06:09:56.263Z,26.58
2023-07-23T06:12:24.820Z,26.37
2023-07-23T06:14:55.151Z,26.37
2023-07-23T06:17:23.558Z,26.36
2023-07-23T06:19:52.101Z,26.04
2023-07-23T06:22:20.396Z,26.30
2023-07-23T06:24:49.040Z,26.31
2023-07-23T06:27:17.468Z,25.76
2023-07-23T06:29:46.462Z,25.85
2023-07-23T06:32:16.788Z,25.25
2023-07-23T06:34:45.387Z,25.12
2023-07-23T06:37:13.645Z,24.63
2023-07-23T06:39:42.372Z,23.24
2023-07-23T06:42:10.578Z,23.34
2023-07-23T06:44:40.716Z,22.79
2023-07-23T06:47:10.188Z,23.01
2023-07-23T06:49:40.272Z,22.85
2023-07-23T06:52:09.028Z,23.06
2023-07-23T06:54:42.229Z,22.75
2023-07-23T06:57:10.796Z,22.43
2023-07-23T06:59:39.361Z,22.06
2023-07-23T07:02:08.766Z,20.34
2023-07-23T07:04:37.328Z,19.76
2023-07-23T07:07:08.058Z,19.10
2023-07-23T07:09:36.478Z,19.20
2023-07-23T07:12:05.355Z,19.32
2023-07-23T07:14:34.035Z,19.70
2023-07-23T07:17:04.058Z,19.98
2023-07-23T07:19:35.053Z,19.90
2023-07-23T07:22:03.395Z,19.95
2023-07-23T07:24:33.538Z,19.44
2023-07-23T07:27:01.780Z,19.59
2023-07-23T07:29:30.594Z,19.55
2023-07-23T07:31:58.916Z,19.01
2023-07-23T07:34:27.483Z,18.20
2023-07-23T07:36:55.926Z,18.38
2023-07-23T07:39:24.519Z,18.46
2023-07-23T07:41:55.644Z,17.95
2023-07-23T07:44:24.278Z,18.52
2023-07-23T07:46:52.605Z,18.02
2023-07-23T07:49:21.202Z,18.44
2023-07-23T07:51:50.059Z,18.42
2023-07-23T07:54:18.855Z,18.20
2023-07-23T07:56:47.814Z,16.31
2023-07-23T07:59:18.455Z,15.03
2023-07-23T08:01:47.556Z,13.78
2023-07-23T08:04:16.791Z,12.65
2023-07-23T08:06:45.896Z,12.18
2023-07-23T08:09:14.844Z,10.60
2023-07-23T08:11:43.788Z,9.15
2023-07-23T08:14:15.207Z,8.27
2023-07-23T08:16:45.585Z,7.43
2023-07-23T08:19:14.943Z,7.05
2023-07-23T08:21:43.734Z,7.03
2023-07-23T08:24:13.324Z,7.05
2023-07-23T08:26:42.300Z,6.82
2023-07-23T08:29:11.567Z,6.48
2023-07-23T08:31:40.687Z,6.58
2023-07-23T08:34:11.181Z,5.79
2023-07-23T08:36:39.392Z,5.52
2023-07-23T08:39:08.814Z,5.17
2023-07-23T08:41:39.490Z,4.99
2023-07-23T08:44:50.719Z,4.63
2023-07-23T08:47:23.415Z,4.98
2023-07-23T08:49:54.584Z,4.05
2023-07-23T08:52:22.927Z,4.13
2023-07-23T08:54:51.686Z,3.32
2023-07-23T08:57:19.899Z,3.26
2023-07-23T08:59:48.494Z,2.97
2023-07-23T09:02:17.009Z,3.14
2023-07-23T09:04:45.660Z,3.35
2023-07-23T09:07:17.726Z,2.60
2023-07-23T09:09:49.544Z,2.62
2023-07-23T09:12:17.956Z,2.75
2023-07-23T09:14:47.021Z,2.48
2023-07-23T09:17:19.453Z,2.26
2023-07-23T09:19:49.229Z,2.05
2023-07-23T09:22:20.097Z,1.81
2023-07-23T09:24:47.768Z,2.01
2023-07-23T09:27:17.411Z,2.41
2023-07-23T09:29:47.845Z,2.41
2023-07-23T09:32:27.300Z,1.58
2023-07-23T09:34:57.199Z,1.57
2023-07-23T09:37:28.814Z,1.39
2023-07-23T09:39:58.172Z,1.03
2023-07-23T09:42:27.087Z,0.93
2023-07-23T09:45:02.093Z,0.00
2023-07-23T09:47:30.716Z,0.54
2023-07-23T09:49:59.476Z,0.97
2023-07-23T09:52:37.114Z,0.80
2023-07-23T09:55:06.520Z,1.42
2023-07-23T09:57:35.537Z,1.02
2023-07-23T10:00:05.628Z,0.71
2023-07-23T10:02:36.624Z,0.99
2023-07-23T10:05:06.617Z,1.66
2023-07-23T10:07:39.381Z,1.66
2023-07-23T10:10:09.288Z,1.53
2023-07-23T10:12:38.412Z,1.24
2023-07-23T10:15:08.598Z,0.92
2023-07-23T10:17:40.708Z,0.96
2023-07-23T10:20:12.214Z,1.00
2023-07-23T10:22:42.254Z,0.82
2023-07-23T10:25:34.573Z,1.75
2023-07-23T10:28:08.317Z,2.39
2023-07-23T10:30:38.977Z,2.10
2023-07-23T10:33:32.281Z,1.36
2023-07-23T10:36:03.891Z,0.76
2023-07-23T10:38:35.192Z,0.31
2023-07-23T10:41:04.938Z,0.99
2023-07-23T10:43:40.945Z,1.22
2023-07-23T10:46:11.105Z,2.35
2023-07-23T10:48:46.650Z,3.54
2023-07-23T10:51:16.649Z,5.40
2023-07-23T10:53:56.814Z,5.98
2023-07-23T10:56:27.388Z,6.64
2023-07-23T10:58:59.393Z,5.15
2023-07-23T11:01:30.168Z,4.98
2023-07-23T11:04:02.154Z,4.87
2023-07-23T11:06:33.078Z,4.80
2023-07-23T11:09:06.865Z,4.11
2023-07-23T11:11:40.092Z,3.42
2023-07-23T11:14:21.613Z,2.46
2023-07-23T11:16:51.813Z,2.87
2023-07-23T11:19:21.044Z,3.60
2023-07-23T11:21:52.057Z,3.48
2023-07-23T11:24:22.382Z,3.41
2023-07-23T11:26:51.517Z,3.03
2023-07-23T11:29:20.269Z,3.67
2023-07-23T11:31:49.921Z,3.29
2023-07-23T11:34:18.903Z,3.68
2023-07-23T11:36:53.425Z,4.47
2023-07-23T11:39:25.435Z,5.73
2023-07-23T11:41:54.547Z,6.10
2023-07-23T11:44:23.210Z,6.94
2023-07-23T11:46:52.136Z,7.35
2023-07-23T11:49:20.640Z,8.23
2023-07-23T11:51:49.309Z,8.81
2023-07-23T11:54:18.586Z,8.54
2023-07-23T11:56:48.744Z,8.84
2023-07-23T11:59:19.554Z,9.49
2023-07-23T12:01:48.429Z,10.00
2023-07-23T12:04:16.854Z,9.71
2023-07-23T12:06:45.416Z,9.52
2023-07-23T12:09:14.532Z,9.42
2023-07-23T12:11:45.045Z,9.88
2023-07-23T12:14:17.802Z,9.69
2023-07-23T12:16:48.523Z,10.29
2023-07-23T12:19:18.298Z,10.40
2023-07-23T12:21:48.830Z,10.69
2023-07-23T12:24:19.454Z,10.45
2023-07-23T12:26:50.002Z,10.62
2023-07-23T12:29:21.021Z,10.54
2023-07-23T12:31:50.821Z,10.44
2023-07-23T12:34:21.147Z,10.36
2023-07-23T12:36:50.675Z,10.36
2023-07-23T12:39:19.438Z,10.14
2023-07-23T12:41:48.010Z,10.83
2023-07-23T12:44:16.321Z,10.81
2023-07-23T12:46:57.562Z,10.32
2023-07-23T12:49:25.723Z,10.09
2023-07-23T12:51:54.331Z,11.04
2023-07-23T12:54:22.676Z,10.53
2023-07-23T12:56:51.309Z,10.76
2023-07-23T12:59:19.562Z,10.53
2023-07-23T13:01:49.720Z,10.58
2023-07-23T13:04:18.121Z,10.46
2023-07-23T13:06:46.806Z,11.22
2023-07-23T13:09:15.216Z,10.61
2023-07-23T13:11:43.768Z,10.73
2023-07-23T13:14:12.252Z,10.48
2023-07-23T13:16:41.805Z,10.59
2023-07-23T13:19:12.061Z,10.53
2023-07-23T13:21:40.672Z,10.60
2023-07-23T13:24:10.336Z,10.69
2023-07-23T13:26:38.910Z,10.72
2023-07-23T13:29:07.238Z,10.67
2023-07-23T13:31:35.933Z,10.50
2023-07-23T13:34:04.323Z,10.66
2023-07-23T13:36:34.359Z,10.32
2023-07-23T13:39:02.773Z,10.58
2023-07-23T13:41:31.423Z,10.77
2023-07-23T13:44:02.456Z,10.39
2023-07-23T13:46:31.814Z,10.91
2023-07-23T13:49:00.492Z,10.53
2023-07-23T13:51:29.001Z,10.67
2023-07-23T13:53:58.998Z,10.51
2023-07-23T13:56:28.020Z,10.47
2023-07-23T13:58:56.697Z,10.70
2023-07-23T14:01:25.355Z,10.76
2023-07-23T14:04:04.351Z,10.04
2023-07-23T14:06:33.165Z,10.51
2023-07-23T14:09:03.015Z,10.49
2023-07-23T14:11:33.752Z,10.35
2023-07-23T14:14:02.733Z,10.36
2023-07-23T14:16:31.338Z,10.19
2023-07-23T14:19:00.206Z,10.30
2023-07-23T14:21:29.010Z,10.88
2023-07-23T14:23:57.586Z,10.94
2023-07-23T14:26:27.703Z,11.00
2023-07-23T14:28:56.003Z,10.99
2023-07-23T14:31:24.828Z,11.50
2023-07-23T14:33:53.346Z,11.75
2023-07-23T14:36:21.974Z,11.35
2023-07-23T14:38:50.298Z,11.08
2023-07-23T14:41:18.986Z,11.92
2023-07-23T14:43:48.705Z,11.62
2023-07-23T14:46:17.332Z,11.44
2023-07-23T14:48:45.638Z,11.41
2023-07-23T14:51:14.151Z,11.53
2023-07-23T14:53:42.778Z,11.86
2023-07-23T14:56:11.375Z,11.33
2023-07-23T14:58:39.778Z,11.44
2023-07-23T15:01:10.161Z,11.31
2023-07-23T15:03:38.853Z,11.56
2023-07-23T15:06:07.817Z,11.26
2023-07-23T15:08:36.151Z,11.90
2023-07-23T15:11:04.730Z,11.95
2023-07-23T15:13:33.957Z,11.73
2023-07-23T15:16:03.200Z,11.86
2023-07-23T15:18:33.558Z,11.36
2023-07-23T15:21:03.060Z,11.75
2023-07-23T15:23:31.912Z,11.64
2023-07-23T15:26:05.160Z,11.44
2023-07-23T15:28:36.095Z,11.56
2023-07-23T15:31:04.815Z,12.05
2023-07-23T15:33:34.587Z,12.09
2023-07-23T15:36:03.111Z,12.05
2023-07-23T15:38:31.484Z,12.13
2023-07-23T15:41:00.138Z,12.14
2023-07-23T15:43:29.136Z,11.98
2023-07-23T15:45:57.874Z,12.53
2023-07-23T15:48:26.318Z,12.71
2023-07-23T15:50:56.297Z,12.80
2023-07-23T15:53:24.777Z,12.95
2023-07-23T15:55:54.050Z,13.20
2023-07-23T15:58:22.380Z,13.15
2023-07-23T16:00:51.117Z,13.35
2023-07-23T16:03:19.562Z,13.45
2023-07-23T16:05:48.399Z,13.83
2023-07-23T16:08:18.072Z,13.77
2023-07-23T16:10:46.965Z,12.86
2023-07-23T16:13:15.200Z,13.06
2023-07-23T16:15:43.990Z,13.47
2023-07-23T16:18:12.558Z,13.45
2023-07-23T16:20:43.433Z,13.18
2023-07-23T16:23:11.659Z,13.30
2023-07-23T16:25:43.069Z,12.83
2023-07-23T16:28:15.410Z,13.42
2023-07-23T16:30:44.017Z,13.39
2023-07-23T16:33:13.238Z,13.02
2023-07-23T16:35:42.299Z,13.01
2023-07-23T16:38:13.342Z,12.96
2023-07-23T16:40:46.115Z,12.78
2023-07-23T16:43:16.918Z,13.03
2023-07-23T16:45:47.003Z,13.32
2023-07-23T16:48:15.726Z,13.22
2023-07-23T16:50:44.219Z,13.50
2023-07-23T16:53:13.120Z,13.34
2023-07-23T16:55:43.102Z,13.62
2023-07-23T16:58:11.311Z,13.36
2023-07-23T17:00:39.923Z,13.55
2023-07-23T17:03:08.627Z,14.02
2023-07-23T17:05:37.388Z,13.92
2023-07-23T17:08:05.717Z,13.91
2023-07-23T17:10:34.247Z,14.27
2023-07-23T17:13:04.135Z,14.42
2023-07-23T17:15:32.732Z,14.39
2023-07-23T17:18:01.022Z,14.79
2023-07-23T17:20:29.782Z,14.47
2023-07-23T17:22:58.049Z,14.72
2023-07-23T17:25:26.636Z,15.03
2023-07-23T17:27:54.936Z,14.72
2023-07-23T17:30:24.844Z,14.75
2023-07-23T17:32:53.217Z,14.70
2023-07-23T17:35:21.842Z,14.71
2023-07-23T17:37:50.754Z,15.20
2023-07-23T17:40:19.557Z,15.16
2023-07-23T17:42:48.511Z,14.87
2023-07-23T17:45:17.482Z,14.78
2023-07-23T17:47:47.239Z,14.88
2023-07-23T17:50:17.270Z,14.74
2023-07-23T17:52:46.285Z,15.00
2023-07-23T17:55:14.908Z,14.98
2023-07-23T17:57:45.501Z,14.88
2023-07-23T18:00:14.992Z,15.14
2023-07-23T18:02:43.445Z,15.38
2023-07-23T18:05:13.632Z,14.92
2023-07-23T18:07:41.896Z,15.18
2023-07-23T18:10:11.996Z,14.96
2023-07-23T18:12:40.265Z,15.10
2023-07-23T18:15:10.225Z,15.21
2023-07-23T18:17:38.513Z,15.59
2023-07-23T18:20:08.275Z,15.72
2023-07-23T18:22:38.039Z,15.62
2023-07-23T18:25:07.675Z,15.87
2023-07-23T18:27:36.659Z,15.62
2023-07-23T18:30:05.578Z,15.61
2023-07-23T18:32:34.002Z,16.07
2023-07-23T18:35:02.525Z,16.00
2023-07-23T18:37:30.729Z,16.01
2023-07-23T18:40:00.775Z,16.03
2023-07-23T18:42:29.056Z,16.18
2023-07-23T18:44:58.769Z,15.95
2023-07-23T18:47:27.278Z,16.12
2023-07-23T18:49:55.925Z,16.08
2023-07-23T18:52:26.339Z,16.14
2023-07-23T18:54:56.752Z,16.22
2023-07-23T18:57:27.257Z,16.13
2023-07-23T18:59:56.201Z,16.12
2023-07-23T19:02:24.718Z,16.56
2023-07-23T19:04:53.779Z,16.36
2023-07-23T19:07:22.313Z,16.64
2023-07-23T19:09:51.094Z,16.39
2023-07-23T19:12:19.345Z,16.60
2023-07-23T19:14:49.586Z,16.59
2023-07-23T19:17:17.986Z,16.74
2023-07-23T19:19:47.000Z,16.61
2023-07-23T19:22:15.608Z,16.93
2023-07-23T19:24:44.426Z,16.65
2023-07-23T19:27:12.750Z,17.20
2023-07-23T19:29:41.344Z,17.19
2023-07-23T19:32:13.610Z,16.77
2023-07-23T19:34:42.285Z,17.11
2023-07-23T19:37:11.453Z,17.00
2023-07-23T19:39:40.961Z,17.11
2023-07-23T19:42:09.270Z,17.11
2023-07-23T19:44:37.795Z,17.29
2023-07-23T19:47:06.786Z,16.93
2023-07-23T19:49:37.340Z,17.01
2023-07-23T19:52:06.145Z,17.07
2023-07-23T19:54:34.896Z,17.24
2023-07-23T19:57:03.234Z,17.16
2023-07-23T19:59:32.296Z,17.00
2023-07-23T20:02:00.561Z,17.38
2023-07-23T20:04:29.608Z,17.34
2023-07-23T20:06:59.461Z,17.16
2023-07-23T20:09:28.009Z,17.14
2023-07-23T20:11:57.482Z,17.21
2023-07-23T20:14:26.209Z,17.30
2023-07-23T20:16:54.742Z,17.28
2023-07-23T20:19:23.353Z,17.23
2023-07-23T20:21:51.736Z,17.45
2023-07-23T20:24:21.972Z,17.39
2023-07-23T20:26:50.436Z,17.58
2023-07-23T20:29:19.815Z,17.51
2023-07-23T20:31:48.687Z,17.50
2023-07-23T20:34:17.746Z,17.71
2023-07-23T20:36:47.256Z,17.94
2023-07-23T20:39:16.441Z,17.79
2023-07-23T20:41:46.918Z,17.48
2023-07-23T20:44:15.639Z,17.90
2023-07-23T20:46:44.415Z,17.88
2023-07-23T20:49:13.119Z,18.11
2023-07-23T20:51:41.470Z,18.24
2023-07-23T20:54:10.054Z,18.10
2023-07-23T20:56:38.507Z,18.20
2023-07-23T20:59:09.377Z,18.08
2023-07-23T21:01:37.639Z,18.36
2023-07-23T21:04:06.377Z,18.24
2023-07-23T21:06:34.948Z,18.32
2023-07-23T21:09:04.356Z,18.13
2023-07-23T21:11:32.871Z,18.47
2023-07-23T21:14:01.658Z,18.27
2023-07-23T21:16:32.899Z,18.48
2023-07-23T21:19:02.575Z,18.37
2023-07-23T21:21:30.999Z,18.57
2023-07-23T21:23:59.556Z,18.48
2023-07-23T21:26:28.218Z,18.57
2023-07-23T21:28:57.160Z,18.85
2023-07-23T21:31:25.569Z,18.81
2023-07-23T21:33:55.531Z,18.71
2023-07-23T21:36:24.655Z,19.04
2023-07-23T21:38:53.362Z,18.72
2023-07-23T21:41:21.758Z,18.95
2023-07-23T21:43:50.351Z,18.97
2023-07-23T21:46:18.806Z,18.87
2023-07-23T21:48:47.719Z,18.95
2023-07-23T21:51:17.826Z,18.72
2023-07-23T21:53:46.622Z,18.88
2023-07-23T21:56:15.085Z,18.84
2023-07-23T21:58:43.731Z,19.31
2023-07-23T22:01:11.953Z,19.17
2023-07-23T22:03:40.574Z,19.09
2023-07-23T22:06:09.791Z,19.36
2023-07-23T22:08:40.215Z,18.96
2023-07-23T22:11:08.812Z,19.15
2023-07-23T22:13:37.242Z,19.43
2023-07-23T22:16:04.540Z,19.35
2023-07-23T22:18:33.134Z,19.67
2023-07-23T22:21:01.504Z,19.74
2023-07-23T22:23:30.190Z,19.86
2023-07-23T22:25:59.949Z,19.52
2023-07-23T22:28:28.480Z,20.05
2023-07-23T22:30:56.830Z,20.20
2023-07-23T22:33:25.486Z,20.18
2023-07-23T22:35:53.926Z,20.10
2023-07-23T22:38:22.416Z,20.39
2023-07-23T22:40:50.704Z,20.61
2023-07-23T22:43:20.716Z,20.54
2023-07-23T22:45:49.142Z,20.49
2023-07-23T22:48:17.897Z,20.40
2023-07-23T22:50:46.418Z,20.45
2023-07-23T22:53:14.853Z,20.52
2023-07-23T22:55:43.357Z,20.71
2023-07-23T22:58:11.961Z,20.52
2023-07-23T23:00:41.787Z,20.37
2023-07-23T23:03:10.373Z,20.23
2023-07-23T23:05:38.783Z,20.21
2023-07-23T23:08:07.379Z,20.33
2023-07-23T23:10:35.686Z,20.32
2023-07-23T23:13:04.185Z,20.50
2023-07-23T23:15:32.581Z,20.45
2023-07-23T23:18:02.588Z,20.14
2023-07-23T23:20:30.948Z,20.42
2023-07-23T23:22:59.502Z,20.47
2023-07-23T23:25:27.845Z,20.55
2023-07-23T23:27:56.379Z,20.85
2023-07-23T23:30:24.636Z,20.79
2023-07-23T23:32:53.629Z,21.10
2023-07-23T23:35:23.373Z,20.64
2023-07-23T23:37:53.068Z,20.79
2023-07-23T23:40:21.404Z,20.70
2023-07-23T23:42:50.352Z,20.88
2023-07-23T23:45:18.752Z,20.85
2023-07-23T23:47:47.700Z,21.00
2023-07-23T23:50:15.961Z,21.22
2023-07-23T23:52:45.911Z,20.99
2023-07-23T23:55:14.139Z,21.17
2023-07-23T23:57:42.816Z,21.17
